sensor_id;sensor_type;location;lat;lon;timestamp;temperature;humidity
30186;DHT22;31152;49.190;8.122;2023-02-10T00:01:24;-1.10;99.90
30186;DHT22;31152;49.190;8.122;2023-02-10T00:03:54;-1.10;99.90
30186;DHT22;31152;49.190;8.122;2023-02-10T00:06:22;-1.10;99.90
30186;DHT22;31152;49.190;8.122;2023-02-10T00:08:52;-1.10;99.90
30186;DHT22;31152;49.190;8.122;2023-02-10T00:11:19;-1.10;99.90
30186;DHT22;31152;49.190;8.122;2023-02-10T00:13:46;-1.20;99.90
30186;DHT22;31152;49.190;8.122;2023-02-10T00:16:15;-1.20;99.90
30186;DHT22;31152;49.190;8.122;2023-02-10T00:18:42;-1.20;99.90
30186;DHT22;31152;49.190;8.122;2023-02-10T00:21:14;-1.30;99.90
30186;DHT22;31152;49.190;8.122;2023-02-10T00:23:42;-1.30;99.90
30186;DHT22;31152;49.190;8.122;2023-02-10T00:26:11;-1.30;99.90
30186;DHT22;31152;49.190;8.122;2023-02-10T00:28:38;-1.40;99.90
30186;DHT22;31152;49.190;8.122;2023-02-10T00:31:09;-1.40;99.90
30186;DHT22;31152;49.190;8.122;2023-02-10T00:33:40;-1.30;99.90
30186;DHT22;31152;49.190;8.122;2023-02-10T00:36:11;-1.30;99.90
30186;DHT22;31152;49.190;8.122;2023-02-10T00:38:39;-1.30;99.90
30186;DHT22;31152;49.190;8.122;2023-02-10T00:41:17;-1.30;99.90
30186;DHT22;31152;49.190;8.122;2023-02-10T00:43:44;-1.30;99.90
30186;DHT22;31152;49.190;8.122;2023-02-10T00:46:16;-1.40;99.90
30186;DHT22;31152;49.190;8.122;2023-02-10T00:48:44;-1.40;99.90
30186;DHT22;31152;49.190;8.122;2023-02-10T00:51:11;-1.40;99.90
30186;DHT22;31152;49.190;8.122;2023-02-10T00:53:39;-1.40;99.90
30186;DHT22;31152;49.190;8.122;2023-02-10T00:56:07;-1.40;99.90
30186;DHT22;31152;49.190;8.122;2023-02-10T00:58:34;-1.50;99.90
30186;DHT22;31152;49.190;8.122;2023-02-10T01:01:06;-1.50;99.90
30186;DHT22;31152;49.190;8.122;2023-02-10T01:03:33;-1.50;99.90
30186;DHT22;31152;49.190;8.122;2023-02-10T01:06:03;-1.50;99.90
30186;DHT22;31152;49.190;8.122;2023-02-10T01:08:30;-1.50;99.90
30186;DHT22;31152;49.190;8.122;2023-02-10T01:11:03;-1.40;99.90
30186;DHT22;31152;49.190;8.122;2023-02-10T01:13:30;-1.30;99.90
30186;DHT22;31152;49.190;8.122;2023-02-10T01:15:57;-1.30;99.90
30186;DHT22;31152;49.190;8.122;2023-02-10T01:18:24;-1.20;99.90
30186;DHT22;31152;49.190;8.122;2023-02-10T01:20:53;-1.20;99.90
30186;DHT22;31152;49.190;8.122;2023-02-10T01:23:20;-1.20;99.90
30186;DHT22;31152;49.190;8.122;2023-02-10T01:25:47;-1.20;99.90
30186;DHT22;31152;49.190;8.122;2023-02-10T01:28:16;-1.20;99.90
30186;DHT22;31152;49.190;8.122;2023-02-10T01:30:43;-1.20;99.90
30186;DHT22;31152;49.190;8.122;2023-02-10T01:33:10;-1.30;99.90
30186;DHT22;31152;49.190;8.122;2023-02-10T01:35:37;-1.30;99.90
30186;DHT22;31152;49.190;8.122;2023-02-10T01:38:09;-1.30;99.90
30186;DHT22;31152;49.190;8.122;2023-02-10T01:40:36;-1.30;99.90
30186;DHT22;31152;49.190;8.122;2023-02-10T01:43:15;-1.30;99.90
30186;DHT22;31152;49.190;8.122;2023-02-10T01:45:42;-1.40;99.90
30186;DHT22;31152;49.190;8.122;2023-02-10T01:48:10;-1.40;99.90
30186;DHT22;31152;49.190;8.122;2023-02-10T01:50:50;-1.30;99.90
30186;DHT22;31152;49.190;8.122;2023-02-10T01:53:18;-1.30;99.90
30186;DHT22;31152;49.190;8.122;2023-02-10T01:55:52;-1.30;99.90
30186;DHT22;31152;49.190;8.122;2023-02-10T01:58:22;-1.30;99.90
30186;DHT22;31152;49.190;8.122;2023-02-10T02:00:51;-1.30;99.90
30186;DHT22;31152;49.190;8.122;2023-02-10T02:03:18;-1.30;99.90
30186;DHT22;31152;49.190;8.122;2023-02-10T02:05:44;-1.30;99.90
30186;DHT22;31152;49.190;8.122;2023-02-10T02:08:25;-1.30;99.90
30186;DHT22;31152;49.190;8.122;2023-02-10T02:14:10;-1.30;99.90
30186;DHT22;31152;49.190;8.122;2023-02-10T02:31:48;-1.40;99.90
30186;DHT22;31152;49.190;8.122;2023-02-10T02:37:31;-1.50;99.90
30186;DHT22;31152;49.190;8.122;2023-02-10T02:40:00;-1.50;99.90
30186;DHT22;31152;49.190;8.122;2023-02-10T02:42:29;-1.50;99.90
30186;DHT22;31152;49.190;8.122;2023-02-10T02:50:38;-1.60;99.90
30186;DHT22;31152;49.190;8.122;2023-02-10T02:53:17;-1.60;99.90
30186;DHT22;31152;49.190;8.122;2023-02-10T03:01:07;-1.50;99.90
30186;DHT22;31152;49.190;8.122;2023-02-10T03:03:36;-1.50;99.90
30186;DHT22;31152;49.190;8.122;2023-02-10T03:06:04;-1.50;99.90
30186;DHT22;31152;49.190;8.122;2023-02-10T03:08:33;-1.40;99.90
30186;DHT22;31152;49.190;8.122;2023-02-10T03:11:02;-1.40;99.90
30186;DHT22;31152;49.190;8.122;2023-02-10T03:13:30;-1.40;99.90
30186;DHT22;31152;49.190;8.122;2023-02-10T03:15:58;-1.40;99.90
30186;DHT22;31152;49.190;8.122;2023-02-10T03:18:25;-1.40;99.90
30186;DHT22;31152;49.190;8.122;2023-02-10T03:20:52;-1.40;99.90
30186;DHT22;31152;49.190;8.122;2023-02-10T03:23:19;-1.40;99.90
30186;DHT22;31152;49.190;8.122;2023-02-10T03:25:46;-1.40;99.90
30186;DHT22;31152;49.190;8.122;2023-02-10T03:28:14;-1.40;99.90
30186;DHT22;31152;49.190;8.122;2023-02-10T03:30:41;-1.40;99.90
30186;DHT22;31152;49.190;8.122;2023-02-10T03:33:14;-1.50;99.90
30186;DHT22;31152;49.190;8.122;2023-02-10T03:35:43;-1.50;99.90
30186;DHT22;31152;49.190;8.122;2023-02-10T03:38:11;-1.60;99.90
30186;DHT22;31152;49.190;8.122;2023-02-10T03:40:41;-1.60;99.90
30186;DHT22;31152;49.190;8.122;2023-02-10T03:43:07;-1.60;99.90
30186;DHT22;31152;49.190;8.122;2023-02-10T03:45:34;-1.60;99.90
30186;DHT22;31152;49.190;8.122;2023-02-10T03:48:01;-1.50;99.90
30186;DHT22;31152;49.190;8.122;2023-02-10T03:50:28;-1.50;99.90
30186;DHT22;31152;49.190;8.122;2023-02-10T03:52:55;-1.40;99.90
30186;DHT22;31152;49.190;8.122;2023-02-10T03:55:22;-1.40;99.90
30186;DHT22;31152;49.190;8.122;2023-02-10T03:57:51;-1.30;99.90
30186;DHT22;31152;49.190;8.122;2023-02-10T04:00:18;-1.40;99.90
30186;DHT22;31152;49.190;8.122;2023-02-10T04:02:45;-1.50;99.90
30186;DHT22;31152;49.190;8.122;2023-02-10T04:05:12;-1.50;99.90
30186;DHT22;31152;49.190;8.122;2023-02-10T04:07:39;-1.50;99.90
30186;DHT22;31152;49.190;8.122;2023-02-10T04:10:06;-1.60;99.90
30186;DHT22;31152;49.190;8.122;2023-02-10T04:12:36;-1.60;99.90
30186;DHT22;31152;49.190;8.122;2023-02-10T04:15:04;-1.60;99.90
30186;DHT22;31152;49.190;8.122;2023-02-10T04:17:31;-1.60;99.90
30186;DHT22;31152;49.190;8.122;2023-02-10T04:20:00;-1.60;99.90
30186;DHT22;31152;49.190;8.122;2023-02-10T04:22:27;-1.50;99.90
30186;DHT22;31152;49.190;8.122;2023-02-10T04:24:53;-1.50;99.90
30186;DHT22;31152;49.190;8.122;2023-02-10T04:27:20;-1.40;99.90
30186;DHT22;31152;49.190;8.122;2023-02-10T04:29:49;-1.30;99.90
30186;DHT22;31152;49.190;8.122;2023-02-10T04:32:16;-1.30;99.90
30186;DHT22;31152;49.190;8.122;2023-02-10T04:34:43;-1.30;99.90
30186;DHT22;31152;49.190;8.122;2023-02-10T04:37:10;-1.30;99.90
30186;DHT22;31152;49.190;8.122;2023-02-10T04:39:36;-1.20;99.90
30186;DHT22;31152;49.190;8.122;2023-02-10T04:42:03;-1.30;99.90
30186;DHT22;31152;49.190;8.122;2023-02-10T04:44:30;-1.30;99.90
30186;DHT22;31152;49.190;8.122;2023-02-10T04:46:57;-1.30;99.90
30186;DHT22;31152;49.190;8.122;2023-02-10T04:49:24;-1.30;99.90
30186;DHT22;31152;49.190;8.122;2023-02-10T04:51:53;-1.30;99.90
30186;DHT22;31152;49.190;8.122;2023-02-10T04:54:21;-1.30;99.90
30186;DHT22;31152;49.190;8.122;2023-02-10T04:56:51;-1.40;99.90
30186;DHT22;31152;49.190;8.122;2023-02-10T04:59:17;-1.40;99.90
30186;DHT22;31152;49.190;8.122;2023-02-10T05:01:44;-1.40;99.90
30186;DHT22;31152;49.190;8.122;2023-02-10T05:04:11;-1.40;99.90
30186;DHT22;31152;49.190;8.122;2023-02-10T05:06:40;-1.40;99.90
30186;DHT22;31152;49.190;8.122;2023-02-10T05:09:09;-1.40;99.90
30186;DHT22;31152;49.190;8.122;2023-02-10T05:11:36;-1.40;99.90
30186;DHT22;31152;49.190;8.122;2023-02-10T05:14:03;-1.40;99.90
30186;DHT22;31152;49.190;8.122;2023-02-10T05:16:29;-1.50;99.90
30186;DHT22;31152;49.190;8.122;2023-02-10T05:18:56;-1.50;99.90
30186;DHT22;31152;49.190;8.122;2023-02-10T05:21:23;-1.50;99.90
30186;DHT22;31152;49.190;8.122;2023-02-10T05:23:49;-1.60;99.90
30186;DHT22;31152;49.190;8.122;2023-02-10T05:26:16;-1.60;99.90
30186;DHT22;31152;49.190;8.122;2023-02-10T05:28:43;-1.70;99.90
30186;DHT22;31152;49.190;8.122;2023-02-10T05:31:10;-1.70;99.90
30186;DHT22;31152;49.190;8.122;2023-02-10T05:33:36;-1.70;99.90
30186;DHT22;31152;49.190;8.122;2023-02-10T05:36:03;-1.80;99.90
30186;DHT22;31152;49.190;8.122;2023-02-10T05:38:31;-1.80;99.90
30186;DHT22;31152;49.190;8.122;2023-02-10T05:41:01;-1.80;99.90
30186;DHT22;31152;49.190;8.122;2023-02-10T05:43:27;-1.90;99.90
30186;DHT22;31152;49.190;8.122;2023-02-10T05:45:54;-2.00;99.90
30186;DHT22;31152;49.190;8.122;2023-02-10T05:48:21;-2.00;99.90
30186;DHT22;31152;49.190;8.122;2023-02-10T05:50:51;-2.10;99.90
30186;DHT22;31152;49.190;8.122;2023-02-10T05:53:20;-2.10;99.90
30186;DHT22;31152;49.190;8.122;2023-02-10T05:55:47;-2.20;99.90
30186;DHT22;31152;49.190;8.122;2023-02-10T05:58:14;-2.20;99.90
30186;DHT22;31152;49.190;8.122;2023-02-10T06:00:45;-2.20;99.90
30186;DHT22;31152;49.190;8.122;2023-02-10T06:03:12;-2.30;99.90
30186;DHT22;31152;49.190;8.122;2023-02-10T06:05:39;-2.30;99.90
30186;DHT22;31152;49.190;8.122;2023-02-10T06:08:06;-2.30;99.90
30186;DHT22;31152;49.190;8.122;2023-02-10T06:10:33;-2.40;99.90
30186;DHT22;31152;49.190;8.122;2023-02-10T06:12:59;-2.40;99.90
30186;DHT22;31152;49.190;8.122;2023-02-10T06:15:26;-2.40;99.90
30186;DHT22;31152;49.190;8.122;2023-02-10T06:17:53;-2.30;99.90
30186;DHT22;31152;49.190;8.122;2023-02-10T06:20:19;-2.40;99.90
30186;DHT22;31152;49.190;8.122;2023-02-10T06:22:48;-2.40;99.90
30186;DHT22;31152;49.190;8.122;2023-02-10T06:25:17;-2.30;99.90
30186;DHT22;31152;49.190;8.122;2023-02-10T06:27:44;-2.40;99.90
30186;DHT22;31152;49.190;8.122;2023-02-10T06:30:11;-2.40;99.90
30186;DHT22;31152;49.190;8.122;2023-02-10T06:32:38;-2.40;99.90
30186;DHT22;31152;49.190;8.122;2023-02-10T06:35:04;-2.40;99.90
30186;DHT22;31152;49.190;8.122;2023-02-10T06:37:31;-2.40;99.90
30186;DHT22;31152;49.190;8.122;2023-02-10T06:39:58;-2.40;99.90
30186;DHT22;31152;49.190;8.122;2023-02-10T06:42:27;-2.40;99.90
30186;DHT22;31152;49.190;8.122;2023-02-10T06:44:56;-2.40;99.90
30186;DHT22;31152;49.190;8.122;2023-02-10T06:47:26;-2.40;99.90
30186;DHT22;31152;49.190;8.122;2023-02-10T06:49:53;-2.30;99.90
30186;DHT22;31152;49.190;8.122;2023-02-10T06:52:20;-2.40;99.90
30186;DHT22;31152;49.190;8.122;2023-02-10T06:54:53;-2.40;99.90
30186;DHT22;31152;49.190;8.122;2023-02-10T06:57:19;-2.40;99.90
30186;DHT22;31152;49.190;8.122;2023-02-10T06:59:46;-2.40;99.90
30186;DHT22;31152;49.190;8.122;2023-02-10T07:02:13;-2.40;99.90
30186;DHT22;31152;49.190;8.122;2023-02-10T07:04:40;-2.40;99.90
30186;DHT22;31152;49.190;8.122;2023-02-10T07:07:06;-2.40;99.90
30186;DHT22;31152;49.190;8.122;2023-02-10T07:09:33;-2.50;99.90
30186;DHT22;31152;49.190;8.122;2023-02-10T07:12:03;-2.50;99.90
30186;DHT22;31152;49.190;8.122;2023-02-10T07:14:29;-2.50;99.90
30186;DHT22;31152;49.190;8.122;2023-02-10T07:16:56;-2.60;99.90
30186;DHT22;31152;49.190;8.122;2023-02-10T07:19:23;-2.50;99.90
30186;DHT22;31152;49.190;8.122;2023-02-10T07:21:49;-2.60;99.90
30186;DHT22;31152;49.190;8.122;2023-02-10T07:24:16;-2.60;99.90
30186;DHT22;31152;49.190;8.122;2023-02-10T07:26:45;-2.50;99.90
30186;DHT22;31152;49.190;8.122;2023-02-10T07:29:12;-2.50;99.90
30186;DHT22;31152;49.190;8.122;2023-02-10T07:31:39;-2.40;99.90
30186;DHT22;31152;49.190;8.122;2023-02-10T07:34:06;-2.40;99.90
30186;DHT22;31152;49.190;8.122;2023-02-10T07:36:35;-2.30;99.90
30186;DHT22;31152;49.190;8.122;2023-02-10T07:39:01;-2.30;99.90
30186;DHT22;31152;49.190;8.122;2023-02-10T07:41:28;-2.30;99.90
30186;DHT22;31152;49.190;8.122;2023-02-10T07:43:55;-2.20;99.90
30186;DHT22;31152;49.190;8.122;2023-02-10T07:46:22;-2.10;99.90
30186;DHT22;31152;49.190;8.122;2023-02-10T07:48:49;-2.00;99.90
30186;DHT22;31152;49.190;8.122;2023-02-10T07:51:15;-1.90;99.90
30186;DHT22;31152;49.190;8.122;2023-02-10T07:53:42;-1.80;99.90
30186;DHT22;31152;49.190;8.122;2023-02-10T07:56:11;-1.70;99.90
30186;DHT22;31152;49.190;8.122;2023-02-10T07:58:37;-1.60;99.90
30186;DHT22;31152;49.190;8.122;2023-02-10T08:01:06;-1.50;99.90
30186;DHT22;31152;49.190;8.122;2023-02-10T08:03:38;-1.40;99.90
30186;DHT22;31152;49.190;8.122;2023-02-10T08:06:05;-1.30;99.90
30186;DHT22;31152;49.190;8.122;2023-02-10T08:08:33;-1.10;99.90
30186;DHT22;31152;49.190;8.122;2023-02-10T08:11:06;-1.10;99.90
30186;DHT22;31152;49.190;8.122;2023-02-10T08:13:33;-1.00;99.90
30186;DHT22;31152;49.190;8.122;2023-02-10T08:16:03;-0.80;99.90
30186;DHT22;31152;49.190;8.122;2023-02-10T08:18:33;-0.70;99.90
30186;DHT22;31152;49.190;8.122;2023-02-10T08:21:01;-0.60;99.90
30186;DHT22;31152;49.190;8.122;2023-02-10T08:23:27;-0.40;99.90
30186;DHT22;31152;49.190;8.122;2023-02-10T08:25:57;-0.30;99.90
30186;DHT22;31152;49.190;8.122;2023-02-10T08:28:24;-0.10;99.90
30186;DHT22;31152;49.190;8.122;2023-02-10T08:30:51;0.10;99.90
30186;DHT22;31152;49.190;8.122;2023-02-10T08:33:18;0.30;99.90
30186;DHT22;31152;49.190;8.122;2023-02-10T08:35:44;0.40;99.90
30186;DHT22;31152;49.190;8.122;2023-02-10T08:38:14;0.50;99.90
30186;DHT22;31152;49.190;8.122;2023-02-10T08:40:41;0.70;99.90
30186;DHT22;31152;49.190;8.122;2023-02-10T08:43:07;0.80;99.90
30186;DHT22;31152;49.190;8.122;2023-02-10T08:45:34;0.90;99.90
30186;DHT22;31152;49.190;8.122;2023-02-10T08:48:04;1.10;99.90
30186;DHT22;31152;49.190;8.122;2023-02-10T08:50:33;1.30;99.90
30186;DHT22;31152;49.190;8.122;2023-02-10T08:53:00;1.50;99.90
30186;DHT22;31152;49.190;8.122;2023-02-10T08:55:29;1.70;99.90
30186;DHT22;31152;49.190;8.122;2023-02-10T08:57:58;1.90;99.90
30186;DHT22;31152;49.190;8.122;2023-02-10T09:00:25;2.00;99.90
30186;DHT22;31152;49.190;8.122;2023-02-10T09:02:52;2.30;99.90
30186;DHT22;31152;49.190;8.122;2023-02-10T09:05:18;2.50;99.90
30186;DHT22;31152;49.190;8.122;2023-02-10T09:07:46;2.80;99.90
30186;DHT22;31152;49.190;8.122;2023-02-10T09:10:15;2.90;99.90
30186;DHT22;31152;49.190;8.122;2023-02-10T09:12:43;3.00;99.90
30186;DHT22;31152;49.190;8.122;2023-02-10T09:15:10;3.20;99.90
30186;DHT22;31152;49.190;8.122;2023-02-10T09:17:37;3.40;99.90
30186;DHT22;31152;49.190;8.122;2023-02-10T09:20:04;3.70;99.90
30186;DHT22;31152;49.190;8.122;2023-02-10T09:22:32;3.90;99.90
30186;DHT22;31152;49.190;8.122;2023-02-10T09:24:58;4.10;99.90
30186;DHT22;31152;49.190;8.122;2023-02-10T09:27:27;4.30;99.90
30186;DHT22;31152;49.190;8.122;2023-02-10T09:29:54;4.40;99.90
30186;DHT22;31152;49.190;8.122;2023-02-10T09:32:21;4.60;99.90
30186;DHT22;31152;49.190;8.122;2023-02-10T09:34:48;4.60;99.90
30186;DHT22;31152;49.190;8.122;2023-02-10T09:37:14;4.40;99.90
30186;DHT22;31152;49.190;8.122;2023-02-10T09:39:41;4.50;99.90
30186;DHT22;31152;49.190;8.122;2023-02-10T09:44:52;4.20;99.90
30186;DHT22;31152;49.190;8.122;2023-02-10T09:48:00;4.40;99.90
30186;DHT22;31152;49.190;8.122;2023-02-10T09:53:24;4.70;99.90
30186;DHT22;31152;49.190;8.122;2023-02-10T09:55:56;4.60;99.90
30186;DHT22;31152;49.190;8.122;2023-02-10T09:58:40;4.80;99.90
30186;DHT22;31152;49.190;8.122;2023-02-10T10:04:23;5.20;99.90
30186;DHT22;31152;49.190;8.122;2023-02-10T10:06:55;5.60;99.90
30186;DHT22;31152;49.190;8.122;2023-02-10T10:09:45;5.90;99.90
30186;DHT22;31152;49.190;8.122;2023-02-10T10:12:17;6.50;99.90
30186;DHT22;31152;49.190;8.122;2023-02-10T10:14:47;7.00;99.90
30186;DHT22;31152;49.190;8.122;2023-02-10T10:26:07;8.70;95.60
30186;DHT22;31152;49.190;8.122;2023-02-10T10:31:15;9.20;92.90
30186;DHT22;31152;49.190;8.122;2023-02-10T10:33:52;10.10;91.60
30186;DHT22;31152;49.190;8.122;2023-02-10T10:36:33;11.10;87.40
30186;DHT22;31152;49.190;8.122;2023-02-10T10:41:38;11.70;80.10
30186;DHT22;31152;49.190;8.122;2023-02-10T10:44:10;11.90;78.90
30186;DHT22;31152;49.190;8.122;2023-02-10T10:46:55;12.10;76.50
30186;DHT22;31152;49.190;8.122;2023-02-10T10:49:25;12.20;76.00
30186;DHT22;31152;49.190;8.122;2023-02-10T10:51:52;12.00;73.60
30186;DHT22;31152;49.190;8.122;2023-02-10T10:54:20;11.70;75.40
30186;DHT22;31152;49.190;8.122;2023-02-10T10:56:51;11.70;75.80
30186;DHT22;31152;49.190;8.122;2023-02-10T10:59:31;11.80;74.40
30186;DHT22;31152;49.190;8.122;2023-02-10T11:02:19;12.60;74.40
30186;DHT22;31152;49.190;8.122;2023-02-10T11:05:09;13.10;69.10
30186;DHT22;31152;49.190;8.122;2023-02-10T11:07:40;12.80;70.00
30186;DHT22;31152;49.190;8.122;2023-02-10T11:10:25;13.40;68.10
30186;DHT22;31152;49.190;8.122;2023-02-10T11:12:53;13.80;66.50
30186;DHT22;31152;49.190;8.122;2023-02-10T11:17:50;14.10;64.20
30186;DHT22;31152;49.190;8.122;2023-02-10T11:20:26;13.60;63.70
30186;DHT22;31152;49.190;8.122;2023-02-10T11:23:12;12.30;67.30
30186;DHT22;31152;49.190;8.122;2023-02-10T11:25:40;11.50;69.50
30186;DHT22;31152;49.190;8.122;2023-02-10T11:28:20;10.50;73.50
30186;DHT22;31152;49.190;8.122;2023-02-10T11:31:01;9.90;75.80
30186;DHT22;31152;49.190;8.122;2023-02-10T11:33:33;9.30;78.60
30186;DHT22;31152;49.190;8.122;2023-02-10T11:36:10;8.70;80.40
30186;DHT22;31152;49.190;8.122;2023-02-10T11:38:40;8.20;83.40
30186;DHT22;31152;49.190;8.122;2023-02-10T11:41:10;8.00;84.60
30186;DHT22;31152;49.190;8.122;2023-02-10T11:43:43;7.90;86.20
30186;DHT22;31152;49.190;8.122;2023-02-10T11:46:23;7.80;86.80
30186;DHT22;31152;49.190;8.122;2023-02-10T11:49:03;7.70;87.50
30186;DHT22;31152;49.190;8.122;2023-02-10T11:51:31;7.80;88.80
30186;DHT22;31152;49.190;8.122;2023-02-10T11:53:58;7.70;87.80
30186;DHT22;31152;49.190;8.122;2023-02-10T12:04:55;8.70;86.10
30186;DHT22;31152;49.190;8.122;2023-02-10T12:07:56;8.80;85.50
30186;DHT22;31152;49.190;8.122;2023-02-10T12:10:36;9.00;85.00
30186;DHT22;31152;49.190;8.122;2023-02-10T12:13:19;9.10;84.70
30186;DHT22;31152;49.190;8.122;2023-02-10T12:18:40;8.90;85.70
30186;DHT22;31152;49.190;8.122;2023-02-10T12:26:52;8.90;86.90
30186;DHT22;31152;49.190;8.122;2023-02-10T12:29:38;8.90;86.30
30186;DHT22;31152;49.190;8.122;2023-02-10T12:32:53;8.90;86.00
30186;DHT22;31152;49.190;8.122;2023-02-10T12:52:23;8.20;89.60
30186;DHT22;31152;49.190;8.122;2023-02-10T12:55:00;8.10;90.30
30186;DHT22;31152;49.190;8.122;2023-02-10T13:00:37;7.90;90.40
30186;DHT22;31152;49.190;8.122;2023-02-10T13:06:37;7.50;91.80
30186;DHT22;31152;49.190;8.122;2023-02-10T13:12:09;7.30;91.90
30186;DHT22;31152;49.190;8.122;2023-02-10T13:14:40;7.40;92.10
30186;DHT22;31152;49.190;8.122;2023-02-10T13:17:09;7.40;92.50
30186;DHT22;31152;49.190;8.122;2023-02-10T13:22:38;7.40;92.70
30186;DHT22;31152;49.190;8.122;2023-02-10T13:25:11;7.50;92.70
30186;DHT22;31152;49.190;8.122;2023-02-10T13:33:43;7.90;92.60
30186;DHT22;31152;49.190;8.122;2023-02-10T13:36:18;8.10;92.60
30186;DHT22;31152;49.190;8.122;2023-02-10T13:38:47;8.40;92.10
30186;DHT22;31152;49.190;8.122;2023-02-10T13:41:24;8.50;91.70
30186;DHT22;31152;49.190;8.122;2023-02-10T13:44:28;8.40;91.90
30186;DHT22;31152;49.190;8.122;2023-02-10T13:49:53;8.70;91.50
30186;DHT22;31152;49.190;8.122;2023-02-10T13:52:25;8.70;91.40
30186;DHT22;31152;49.190;8.122;2023-02-10T13:58:47;8.20;91.80
30186;DHT22;31152;49.190;8.122;2023-02-10T14:00:47;8.00;92.40
30186;DHT22;31152;49.190;8.122;2023-02-10T14:06:04;7.80;93.30
30186;DHT22;31152;49.190;8.122;2023-02-10T14:08:42;7.80;93.50
30186;DHT22;31152;49.190;8.122;2023-02-10T14:11:41;7.70;94.00
30186;DHT22;31152;49.190;8.122;2023-02-10T14:14:31;7.60;94.00
30186;DHT22;31152;49.190;8.122;2023-02-10T14:19:46;7.60;94.60
30186;DHT22;31152;49.190;8.122;2023-02-10T14:22:34;7.70;94.50
30186;DHT22;31152;49.190;8.122;2023-02-10T14:25:18;7.70;94.00
30186;DHT22;31152;49.190;8.122;2023-02-10T14:27:49;7.70;94.10
30186;DHT22;31152;49.190;8.122;2023-02-10T14:32:55;7.80;94.30
30186;DHT22;31152;49.190;8.122;2023-02-10T14:35:27;7.90;94.10
30186;DHT22;31152;49.190;8.122;2023-02-10T14:37:57;7.90;94.00
30186;DHT22;31152;49.190;8.122;2023-02-10T14:40:29;8.10;94.20
30186;DHT22;31152;49.190;8.122;2023-02-10T14:43:00;8.70;93.60
30186;DHT22;31152;49.190;8.122;2023-02-10T14:45:28;9.40;92.10
30186;DHT22;31152;49.190;8.122;2023-02-10T14:47:57;10.00;91.10
30186;DHT22;31152;49.190;8.122;2023-02-10T14:52:55;10.30;89.00
30186;DHT22;31152;49.190;8.122;2023-02-10T14:55:37;10.50;88.20
30186;DHT22;31152;49.190;8.122;2023-02-10T14:58:16;10.40;86.80
30186;DHT22;31152;49.190;8.122;2023-02-10T15:01:06;10.60;87.70
30186;DHT22;31152;49.190;8.122;2023-02-10T15:03:36;10.70;86.20
30186;DHT22;31152;49.190;8.122;2023-02-10T15:06:03;11.00;85.40
30186;DHT22;31152;49.190;8.122;2023-02-10T15:08:36;10.40;84.10
30186;DHT22;31152;49.190;8.122;2023-02-10T15:11:07;10.00;86.40
30186;DHT22;31152;49.190;8.122;2023-02-10T15:13:46;9.80;88.40
30186;DHT22;31152;49.190;8.122;2023-02-10T15:16:15;9.70;87.50
30186;DHT22;31152;49.190;8.122;2023-02-10T15:18:47;9.40;88.40
30186;DHT22;31152;49.190;8.122;2023-02-10T15:21:34;9.30;90.00
30186;DHT22;31152;49.190;8.122;2023-02-10T15:24:02;9.20;90.20
30186;DHT22;31152;49.190;8.122;2023-02-10T15:26:31;9.30;90.00
30186;DHT22;31152;49.190;8.122;2023-02-10T15:29:11;9.30;90.30
30186;DHT22;31152;49.190;8.122;2023-02-10T15:31:39;9.50;89.80
30186;DHT22;31152;49.190;8.122;2023-02-10T15:34:22;9.40;89.60
30186;DHT22;31152;49.190;8.122;2023-02-10T15:36:56;9.40;90.00
30186;DHT22;31152;49.190;8.122;2023-02-10T15:39:25;9.60;89.10
30186;DHT22;31152;49.190;8.122;2023-02-10T15:44:39;9.40;89.40
30186;DHT22;31152;49.190;8.122;2023-02-10T15:49:47;9.00;90.50
30186;DHT22;31152;49.190;8.122;2023-02-10T15:52:38;8.70;90.90
30186;DHT22;31152;49.190;8.122;2023-02-10T15:55:39;8.50;91.50
30186;DHT22;31152;49.190;8.122;2023-02-10T15:58:03;8.30;91.90
30186;DHT22;31152;49.190;8.122;2023-02-10T16:00:33;8.20;92.00
30186;DHT22;31152;49.190;8.122;2023-02-10T16:03:00;7.90;92.10
30186;DHT22;31152;49.190;8.122;2023-02-10T16:05:28;7.70;92.50
30186;DHT22;31152;49.190;8.122;2023-02-10T16:08:02;7.70;92.60
30186;DHT22;31152;49.190;8.122;2023-02-10T16:10:30;7.50;92.90
30186;DHT22;31152;49.190;8.122;2023-02-10T16:12:57;7.40;93.10
30186;DHT22;31152;49.190;8.122;2023-02-10T16:15:27;7.30;93.50
30186;DHT22;31152;49.190;8.122;2023-02-10T16:17:58;7.20;93.60
30186;DHT22;31152;49.190;8.122;2023-02-10T16:20:28;7.20;93.80
30186;DHT22;31152;49.190;8.122;2023-02-10T16:22:55;7.10;93.90
30186;DHT22;31152;49.190;8.122;2023-02-10T16:25:27;7.00;94.20
30186;DHT22;31152;49.190;8.122;2023-02-10T16:27:57;6.90;94.50
30186;DHT22;31152;49.190;8.122;2023-02-10T16:30:26;6.80;94.80
30186;DHT22;31152;49.190;8.122;2023-02-10T16:32:58;6.60;95.00
30186;DHT22;31152;49.190;8.122;2023-02-10T16:35:27;6.60;95.30
30186;DHT22;31152;49.190;8.122;2023-02-10T16:37:54;6.50;95.50
30186;DHT22;31152;49.190;8.122;2023-02-10T16:40:30;6.50;95.70
30186;DHT22;31152;49.190;8.122;2023-02-10T16:42:58;6.40;95.80
30186;DHT22;31152;49.190;8.122;2023-02-10T16:45:27;6.30;96.00
30186;DHT22;31152;49.190;8.122;2023-02-10T16:47:54;6.30;96.50
30186;DHT22;31152;49.190;8.122;2023-02-10T16:50:37;6.20;96.60
30186;DHT22;31152;49.190;8.122;2023-02-10T16:53:06;6.10;97.10
30186;DHT22;31152;49.190;8.122;2023-02-10T16:55:38;6.00;97.20
30186;DHT22;31152;49.190;8.122;2023-02-10T16:58:05;5.90;97.40
30186;DHT22;31152;49.190;8.122;2023-02-10T17:00:33;5.90;97.80
30186;DHT22;31152;49.190;8.122;2023-02-10T17:03:00;5.80;97.90
30186;DHT22;31152;49.190;8.122;2023-02-10T17:05:26;5.70;98.20
30186;DHT22;31152;49.190;8.122;2023-02-10T17:07:54;5.60;98.50
30186;DHT22;31152;49.190;8.122;2023-02-10T17:10:23;5.50;98.90
30186;DHT22;31152;49.190;8.122;2023-02-10T17:12:53;5.40;99.30
30186;DHT22;31152;49.190;8.122;2023-02-10T17:15:23;5.30;99.70
30186;DHT22;31152;49.190;8.122;2023-02-10T17:17:49;5.20;99.90
30186;DHT22;31152;49.190;8.122;2023-02-10T17:20:50;5.10;99.90
30186;DHT22;31152;49.190;8.122;2023-02-10T17:23:10;5.10;99.90
30186;DHT22;31152;49.190;8.122;2023-02-10T17:25:40;5.00;99.90
30186;DHT22;31152;49.190;8.122;2023-02-10T17:28:10;4.90;99.90
30186;DHT22;31152;49.190;8.122;2023-02-10T17:30:37;4.80;99.90
30186;DHT22;31152;49.190;8.122;2023-02-10T17:33:25;4.80;99.90
30186;DHT22;31152;49.190;8.122;2023-02-10T17:35:54;4.70;99.90
30186;DHT22;31152;49.190;8.122;2023-02-10T17:38:21;4.70;99.90
30186;DHT22;31152;49.190;8.122;2023-02-10T17:41:07;4.60;99.90
30186;DHT22;31152;49.190;8.122;2023-02-10T17:43:34;4.60;99.90
30186;DHT22;31152;49.190;8.122;2023-02-10T17:46:06;4.60;99.90
30186;DHT22;31152;49.190;8.122;2023-02-10T17:48:33;4.60;99.90
30186;DHT22;31152;49.190;8.122;2023-02-10T17:51:03;4.60;99.90
30186;DHT22;31152;49.190;8.122;2023-02-10T17:53:32;4.60;99.90
30186;DHT22;31152;49.190;8.122;2023-02-10T17:56:00;4.50;99.90
30186;DHT22;31152;49.190;8.122;2023-02-10T17:58:28;4.50;99.90
30186;DHT22;31152;49.190;8.122;2023-02-10T18:00:56;4.40;99.90
30186;DHT22;31152;49.190;8.122;2023-02-10T18:03:25;4.30;99.90
30186;DHT22;31152;49.190;8.122;2023-02-10T18:05:56;4.20;99.90
30186;DHT22;31152;49.190;8.122;2023-02-10T18:08:26;4.20;99.90
30186;DHT22;31152;49.190;8.122;2023-02-10T18:10:54;4.20;99.90